RJOORJOY

Guest
Details From RJOO - OSAKA INTL
To RJOY - YAO
Flight Number -
Tags generated
Created
Modified
Stats Distance 14 nm / 26 km
Max Altitude 300 ft / 91 m
Waypoints 3
Social Downloads 0
Likes 0
Share VATSIM

Download

Looking for another format? Having issues loading an existing format? Contact us
Advertisement - Login to hide

Notes

Basic altitude profile: - Ascent Rate: 2500ft/min - Ascent Speed: 250kts - Cruise Altitude: 35000ft - Cruise Speed: 420kts - Descent Rate: 1500ft/min - Descent Speed: 250kts Options: - Use NATs: yes - Use PACOTS: yes - Use low airways: yes - Use high airways: yes

Route

RJOO OWE RJOY

ID Type Via Altitude Latitude Longitude Leg Dist Tot Dist Heading (true) Name
O RJOO APT - 0 ft / 0 m 34.78560˚ 135.43802˚ - 0 nm - OSAKA INTL
OWE VOR - 300 ft / 91 m 34.77604˚ 135.45161˚ 0 nm 0 nm 131° / 131° OSAKA VOR-DME
O RJOY APT - 0 ft / 0 m 34.59671˚ 135.59933˚ 13 nm 13 nm 146° / 146° YAO

Altitude Profile

Advertisement - Login to hide

RJOO

Details ICAO RJOO (ITM)
Name OSAKA INTL
Region Japan
Timezone Asia/Tokyo (UTC+9.0)
Stats Elevation 50 ft / 15 m (AMSL)
Location 34.785603° 135.438019°
Runways 2
Magnetic Variation 7.707° W

METAR

RJOO 230200Z 07010KT 8000 -SHRA FEW015 SCT040 BKN060 19/16 Q1008 RMK 2CU015 3CU040 7SC060 A2979

Decode

TAF

TAF RJOO 222309Z 2300/2406 07010KT 7000 -SHRA FEW008 SCT015 BKN025 TEMPO 2302/2309 4000 SHRA BR BECMG 2309/2311 03004KT BECMG 2403/2406 22005KT

Decode

Departure Runways

ID Width Length Bearing (true) Bearing (mag) Surface Threshold Offset Overrun Length
14L 150 ft / 46 m 5,999 ft / 1,829 m 135.13° 142.84° Asphalt 0 ft / 0 m 678 ft / 207 m
14R 200 ft / 61 m 9,846 ft / 3,001 m 135.13° 142.84° Concrete 0 ft / 0 m 240 ft / 73 m
32L 200 ft / 61 m 9,846 ft / 3,001 m 315.15° 322.86° Concrete 0 ft / 0 m 249 ft / 76 m
32R 150 ft / 46 m 5,999 ft / 1,829 m 315.14° 322.85° Asphalt 0 ft / 0 m 571 ft / 174 m

RJOY

Details ICAO RJOY
Name YAO
Region Japan
Timezone Asia/Tokyo (UTC+9.0)
Stats Elevation 39 ft / 12 m (AMSL)
Location 34.596714° 135.599333°
Runways 2
Magnetic Variation 7.635° W

METAR

RJOY 230200Z 06004KT 350V110 8000 -SHRA FEW005 SCT040 BKN060 20/18 Q1008

Decode

TAF

Not found

Destination Runways

ID Width Length Bearing (true) Bearing (mag) Surface Threshold Offset Overrun Length
09 150 ft / 46 m 4,880 ft / 1,488 m 86.64° 94.27° Asphalt 0 ft / 0 m 215 ft / 66 m
13 100 ft / 30 m 3,919 ft / 1,195 m 127.42° 135.05° Asphalt 0 ft / 0 m 215 ft / 66 m
27 150 ft / 46 m 4,880 ft / 1,488 m 266.65° 274.28° Asphalt 0 ft / 0 m 215 ft / 66 m
31 100 ft / 30 m 3,919 ft / 1,195 m 307.43° 315.06° Asphalt 328 ft / 100 m 215 ft / 66 m